Карточка аэропорта USRR

Внимание!
Информация на этой странице в стадии наполнения.
Если вы не увидели какой-то информации, или заметили неточность - пожалуйста сообщите нам!
Спасибо!
Команда RU-STAFF
Название аэропортаСургут
Название аэропорта (англ.)Surgut
Превышение196 ft. (59.7 m.)
Координаты61°20.502', 73°24.168'
Высота перехода700m
Эшелон переходаQFE>=742mm:FL040; QFE<=742mm:FL050
Коды ответчика5570-5577
Зона ОрВДТюмень РПИ (USTV)
Данные METARUSRR 220330Z 30006MPS 9000 -SHSN FEW013 BKN025CB M01/M03 Q1023 R25/290050 NOSIG RMK OBST OBSC QFE762
Проноз погоды (TAF)USRR 220135Z 2203/2303 33005G14MPS 9999 BKN017 TEMPO 2203/2212 2100 -SHSN SCT007 BKN014CB TEMPO 2212/2218 5000 -SHSN BKN016CB
NOTAMshow/hide NOTAM
AWOS   TABLE

Информация о ВПП

ВПП Длина ВПП (м.) Покрытие Курс ВПП Частота ILS
252780Асфальтобетон253109.1
072780Асфальтобетон73110.5

Диспетчерские позиции

Позывной Наименование органа УВД Частота
USRR_R_APPСургут - Круг120.300
USRR_TWRСургут-Вышка120.800
USRR_APPСургут-Подход129.300



Спутниковое изображение